Latest Weather Observations for Longerenong

IDV60801

Issued at 3:31 pm EST Sunday 29 May 2016 (issued every 30 minutes, with the page automatically refreshed every 10 minutes)

About weather observations | Map of weather stations | Latest weather observations for VIC | Other Formats
Station Details ID: 079028 Name: LONGERENONG Lat: -36.67 Lon: 142.30 Height: 133.0 m
Data from the previous 72 hours. | See also: Recent months at Longerenong
Date/Time
EST
Temp
°C
App
Temp
°C
Dew
Point
Rel
Hum
%
Delta-T
°C
Wind Press
QNH
hPa
Press
MSL
hPa
Rain
since 9 am
mm
Dir
 
Spd
km/h
Gust
km/h
Spd
kts
Gust
kts
29/03:30pm 10.2 7.8 2.1 57 3.5 NE 4 9 2 5 - - 0.0
29/03:00pm 10.1 6.8 2.5 59 3.3 NNE 9 13 5 7 - - 0.0
29/02:30pm 10.1 7.7 2.2 58 3.4 NE 4 6 2 3 - - 0.0
29/02:00pm 10.1 8.2 2.7 60 3.2 NE 2 7 1 4 - - 0.0
29/01:30pm 9.8 7.0 2.9 62 3.0 ENE 7 19 4 10 - - 0.0
29/01:00pm 10.0 8.1 2.6 60 3.2 ENE 2 7 1 4 - - 0.0
29/12:30pm 10.4 8.7 3.9 64 2.9 NE 2 9 1 5 - - 0.0
29/12:00pm 9.2 6.9 2.8 64 2.7 N 4 9 2 5 - - 0.0
29/11:30am 8.9 6.0 2.5 64 2.7 NNW 7 13 4 7 - - 0.0
29/11:00am 9.1 6.8 2.7 64 2.7 NE 4 11 2 6 - - 0.0
29/10:30am 8.8 6.0 2.2 63 2.8 E 6 11 3 6 - - 0.0
29/10:00am 8.7 6.7 2.5 65 2.6 N 2 6 1 3 - - 0.0
29/09:30am 8.4 5.6 2.2 65 2.6 NNE 6 9 3 5 - - 0.0
29/09:00am 8.2 6.5 2.0 65 2.6 CALM 0 2 0 1 - - 0.0
29/08:30am 7.7 6.2 3.2 73 1.9 CALM 0 0 0 0 - - 0.0
29/08:00am 8.0 5.6 2.3 67 2.4 S 4 9 2 5 - - 0.0
29/07:30am 7.5 5.9 2.6 71 2.1 CALM 0 6 0 3 - - 0.0
29/07:00am 6.7 5.3 3.7 81 1.3 CALM 0 0 0 0 - - 0.0
29/06:30am 6.7 5.3 3.5 80 1.4 CALM 0 0 0 0 - - 0.0
29/06:00am 6.6 5.2 3.4 80 1.4 CALM 0 0 0 0 - - 0.0
29/05:30am 6.4 4.2 3.6 82 1.2 S 4 7 2 4 - - 0.0
29/05:00am 6.1 3.9 3.6 84 1.1 S 4 6 2 3 - - 0.0
29/04:30am 5.3 3.1 3.6 89 0.7 S 4 4 2 2 - - 0.0
29/04:00am 5.1 2.9 3.6 90 0.6 S 4 4 2 2 - - 0.0
29/03:30am 4.6 2.5 3.7 94 0.4 S 4 6 2 3 - - 0.0
29/03:00am 4.0 1.4 3.3 95 0.3 S 6 6 3 3 - - 0.0
29/02:30am 3.5 0.8 2.9 96 0.2 S 6 6 3 3 - - 0.0
29/02:00am 2.5 -0.3 1.8 95 0.3 S 6 6 3 3 - - 0.0
29/01:30am 2.5 -0.3 1.8 95 0.3 S 6 6 3 3 - - 0.0
29/01:00am 2.5 -0.4 1.5 93 0.4 S 6 6 3 3 - - 0.0
29/12:30am 3.0 0.5 1.5 90 0.6 S 4 4 2 2 - - 0.0
29/12:00am 6.2 2.9 2.7 78 1.5 S 9 11 5 6 - - 0.0
 
Date/Time
EST
Temp
°C
App
Temp
°C
Dew
Point
Rel
Hum
%
Delta-T
°C
Wind Press
QNH
hPa
Press
MSL
hPa
Rain
since 9 am
mm
Dir
 
Spd
km/h
Gust
km/h
Spd
kts
Gust
kts
28/11:30pm 7.6 3.7 3.3 74 1.8 S 13 17 7 9 - - 0.0
28/11:00pm 7.4 3.9 3.5 76 1.7 S 11 20 6 11 - - 0.0
28/10:30pm 4.5 2.2 2.5 87 0.8 SSW 4 4 2 2 - - 0.0
28/10:00pm 5.0 2.3 2.9 86 0.9 S 6 6 3 3 - - 0.0
28/09:30pm 5.7 2.9 2.9 82 1.2 S 7 7 4 4 - - 0.0
28/09:00pm 5.6 2.4 3.1 84 1.0 S 9 9 5 5 - - 0.0
28/08:30pm 5.8 3.0 3.1 83 1.1 SSW 7 9 4 5 - - 0.0
28/08:00pm 7.3 4.8 3.5 77 1.6 SSE 6 9 3 5 - - 0.0
28/07:30pm 7.7 5.3 4.1 78 1.6 SSE 6 9 3 5 - - 0.0
28/07:00pm 8.5 6.1 4.1 74 1.9 SE 6 6 3 3 - - 0.0
28/06:30pm 9.4 6.1 4.6 72 2.2 SSE 11 17 6 9 - - 0.0
28/06:00pm 10.0 6.2 5.6 74 2.0 SSW 15 20 8 11 - - 0.0
28/05:30pm 10.6 7.3 6.6 76 1.9 SSW 13 15 7 8 - - 0.0
28/05:00pm 11.4 8.3 7.1 75 2.1 SSW 13 17 7 9 - - 0.0
28/04:30pm 11.8 6.9 7.1 73 2.3 SSW 22 32 12 17 - - 0.0
28/04:00pm 11.8 7.0 7.3 74 2.2 SSW 22 30 12 16 - - 0.0
28/03:30pm 13.0 8.6 7.2 68 2.8 SSW 20 30 11 16 - - 0.0
28/03:00pm 13.3 8.3 6.6 64 3.2 SSW 22 33 12 18 - - 0.0
28/02:30pm 12.8 8.1 7.9 72 2.4 SW 22 30 12 16 - - 0.0
28/02:00pm 13.6 9.2 6.5 62 3.4 SSW 19 26 10 14 - - 0.0
28/01:30pm 13.5 8.5 6.6 63 3.3 SSW 22 33 12 18 - - 0.0
28/01:00pm 13.2 9.0 8.1 71 2.5 S 20 30 11 16 - - 0.0
28/12:30pm 12.2 7.4 7.3 72 2.4 SSW 22 28 12 15 - - 0.0
28/12:00pm 12.7 8.4 7.8 72 2.4 SSW 20 28 11 15 - - 0.0
28/11:30am 12.1 8.5 8.2 77 1.9 SSW 17 24 9 13 - - 0.0
28/11:00am 11.9 8.0 8.6 80 1.6 SSW 19 24 10 13 - - 0.0
28/10:30am 11.7 8.0 7.8 77 1.9 S 17 26 9 14 - - 0.0
28/10:00am 11.1 7.4 7.8 80 1.6 SSW 17 26 9 14 - - 0.0
28/09:30am 9.7 6.3 7.5 86 1.1 SSW 15 22 8 12 - - 0.0
28/09:00am 9.0 6.2 7.0 87 0.9 SSW 11 17 6 9 - - 9.8
28/08:30am 8.3 4.6 6.4 88 0.9 S 15 20 8 11 - - 9.8
28/08:00am 7.7 4.4 6.3 91 0.6 S 13 19 7 10 - - 9.8
28/07:30am 7.2 4.5 5.8 91 0.6 SSE 9 9 5 5 - - 9.8
28/07:00am 7.6 4.3 6.2 91 0.6 S 13 17 7 9 - - 9.8
28/06:30am 7.3 4.7 6.1 92 0.5 S 9 13 5 7 - - 9.8
28/06:00am 8.4 5.1 6.2 86 1.0 S 13 17 7 9 - - 9.8
28/05:30am 8.6 6.2 7.1 90 0.7 S 9 11 5 6 - - 9.6
28/05:00am 9.3 6.7 7.6 89 0.8 SSE 11 15 6 8 - - 9.6
28/04:30am 9.2 6.6 7.6 90 0.8 SSE 11 15 6 8 - - 9.6
28/04:00am 9.1 5.8 8.0 93 0.5 SSE 15 22 8 12 - - 9.6
28/03:30am 9.2 6.0 8.4 95 0.4 SSE 15 22 8 12 - - 9.6
28/03:00am 9.2 5.2 8.4 95 0.4 SSE 19 24 10 13 - - 9.6
28/02:30am 9.3 5.3 8.2 93 0.5 SSE 19 26 10 14 - - 9.6
28/02:00am 9.5 5.3 8.3 92 0.6 SSE 20 30 11 16 - - 9.6
28/01:30am 9.7 6.9 8.5 92 0.6 SSE 13 20 7 11 - - 9.6
28/01:00am 9.9 7.1 8.5 91 0.7 S 13 19 7 10 - - 9.6
28/12:30am 9.7 7.7 8.6 93 0.5 SSE 9 13 5 7 - - 9.6
28/12:00am 9.8 7.9 8.9 94 0.4 SSE 9 15 5 8 - - 9.6
 
Date/Time
EST
Temp
°C
App
Temp
°C
Dew
Point
Rel
Hum
%
Delta-T
°C
Wind Press
QNH
hPa
Press
MSL
hPa
Rain
since 9 am
mm
Dir
 
Spd
km/h
Gust
km/h
Spd
kts
Gust
kts
27/11:30pm 9.7 7.8 8.9 95 0.4 SSE 9 11 5 6 - - 9.6
27/11:00pm 9.8 7.1 9.0 95 0.4 SE 13 17 7 9 - - 9.6
27/10:30pm 10.0 8.6 9.4 96 0.3 SE 7 9 4 5 - - 9.4
27/10:00pm 10.2 9.7 9.4 95 0.4 ENE 2 4 1 2 - - 8.8
27/09:30pm 10.1 9.6 9.3 95 0.4 ENE 2 4 1 2 - - 8.8
27/09:00pm 9.9 9.3 9.1 95 0.4 E 2 6 1 3 - - 8.8
27/08:30pm 9.9 9.0 9.1 95 0.4 SE 4 7 2 4 - - 8.8
27/08:00pm 10.0 9.8 9.1 94 0.4 CALM 0 0 0 0 - - 8.6
27/07:30pm 10.0 9.8 9.1 94 0.4 CALM 0 2 0 1 - - 8.6
27/07:00pm 10.0 9.1 9.4 96 0.3 NE 4 6 2 3 - - 8.4
27/06:30pm 10.3 10.3 9.7 96 0.3 CALM 0 0 0 0 - - 8.4
27/06:00pm 10.6 10.6 9.8 95 0.4 CALM 0 0 0 0 - - 8.4
27/05:30pm 10.8 10.5 10.0 95 0.4 SE 2 4 1 2 - - 8.4
27/05:00pm 10.7 9.4 9.8 94 0.5 ESE 7 9 4 5 - - 7.6
27/04:30pm 11.4 9.1 10.3 93 0.6 WSW 13 22 7 12 - - 6.2
27/04:00pm 11.6 11.1 10.8 95 0.4 NE 4 6 2 3 - - 5.6
27/03:30pm 11.1 10.1 10.2 94 0.5 ESE 6 9 3 5 - - 4.6
27/03:00pm 11.1 10.1 10.2 94 0.5 ENE 6 9 3 5 - - 1.4
27/02:30pm 11.6 9.6 10.2 91 0.7 NE 11 17 6 9 - - 1.2
27/02:00pm 11.9 9.3 10.6 92 0.7 NE 15 20 8 11 - - 1.2
27/01:30pm 11.4 9.7 10.0 91 0.7 NNE 9 19 5 10 - - 1.0
27/01:00pm 11.6 9.8 11.0 96 0.3 ENE 11 19 6 10 - - 0.0
27/12:30pm 10.6 8.6 10.3 98 0.2 NE 11 15 6 8 - - 0.0
27/12:00pm 10.1 8.1 10.0 99 0.1 NNE 11 17 6 9 - - 0.0
27/11:30am 9.1 6.8 9.0 99 0.0 NE 11 17 6 9 - - 0.0
27/11:00am 8.7 7.1 8.6 99 0.0 NNE 7 11 4 6 - - 0.0
27/10:30am 7.6 5.9 7.5 99 0.0 NNE 6 7 3 4 - - 0.0
27/10:00am 7.0 5.1 6.9 99 0.0 NNE 6 7 3 4 - - 0.0
27/09:30am 5.9 4.9 5.8 99 0.0 CALM 0 4 0 2 - - 0.0
27/09:00am 4.6 2.6 4.5 99 0.0 E 4 6 2 3 - - 0.2
27/08:30am 3.7 1.1 3.4 98 0.1 ESE 6 7 3 4 - - 0.2
27/08:00am 3.5 1.7 3.2 98 0.1 S 2 4 1 2 - - 0.2
27/07:30am 3.3 1.8 3.0 98 0.1 CALM 0 0 0 0 - - 0.2
27/07:00am 3.0 1.1 2.7 98 0.1 SSW 2 6 1 3 - - 0.2
27/06:30am 3.1 -0.1 2.8 98 0.1 NW 9 11 5 6 - - 0.2
27/06:00am 3.1 -0.5 2.8 98 0.1 NW 11 13 6 7 - - 0.2
27/05:30am 2.4 -1.0 2.1 98 0.1 NNW 9 11 5 6 - - 0.0
27/05:00am 2.6 0.2 2.3 98 0.1 NW 4 6 2 3 - - 0.0
27/04:30am 3.1 0.8 2.8 98 0.1 NW 4 6 2 3 - - 0.0
27/04:00am 3.6 1.4 3.3 98 0.1 NW 4 4 2 2 - - 0.0
27/03:30am 2.7 -0.1 2.3 97 0.2 NW 6 6 3 3 - - 0.0
27/03:00am 5.2 3.3 4.8 97 0.2 NW 4 6 2 3 - - 0.0
27/02:30am 3.7 2.2 3.1 96 0.2 CALM 0 0 0 0 - - 0.0
27/02:00am 5.3 4.1 4.7 96 0.3 CALM 0 0 0 0 - - 0.0
27/01:30am 6.0 5.0 5.4 96 0.3 CALM 0 2 0 1 - - 0.0
27/01:00am 6.0 3.8 5.3 95 0.3 WSW 6 6 3 3 - - 0.0
27/12:30am 6.7 4.6 5.8 94 0.4 W 6 7 3 4 - - 0.0
27/12:00am 6.6 5.2 5.6 93 0.4 W 2 2 1 1 - - 0.0
 
Date/Time
EST
Temp
°C
App
Temp
°C
Dew
Point
Rel
Hum
%
Delta-T
°C
Wind Press
QNH
hPa
Press
MSL
hPa
Rain
since 9 am
mm
Dir
 
Spd
km/h
Gust
km/h
Spd
kts
Gust
kts
26/11:30pm 7.1 5.4 6.0 93 0.5 W 4 6 2 3 - - 0.0
26/11:00pm 7.7 5.5 6.3 91 0.6 WSW 7 9 4 5 - - 0.0
26/10:30pm 7.7 5.5 6.3 91 0.6 WNW 7 9 4 5 - - 0.0
26/10:00pm 8.5 6.1 7.1 91 0.7 W 9 9 5 5 - - 0.0
26/09:30pm 8.4 6.4 7.2 92 0.6 W 7 9 4 5 - - 0.0
26/09:00pm 7.7 5.6 6.5 92 0.6 WNW 7 11 4 6 - - 0.0
26/08:30pm 7.7 5.5 6.2 90 0.7 W 7 9 4 5 - - 0.0
26/08:00pm 8.7 6.1 6.3 85 1.1 W 9 11 5 6 - - 0.0
26/07:30pm 9.9 7.1 6.8 81 1.5 WSW 11 15 6 8 - - 0.0
26/07:00pm 10.0 7.1 6.7 80 1.6 W 11 13 6 7 - - 0.0
26/06:30pm 10.1 7.3 6.8 80 1.6 WSW 11 15 6 8 - - 0.0
26/06:00pm 10.9 7.4 7.0 77 1.9 SW 15 20 8 11 - - 0.0
26/05:30pm 11.7 8.6 7.2 74 2.2 SW 13 19 7 10 - - 0.0
26/05:00pm 12.0 7.9 6.3 68 2.7 SW 17 22 9 12 - - 0.0
26/04:30pm 13.1 8.6 7.1 67 2.9 SW 20 28 11 15 - - 0.0
26/04:00pm 12.9 8.4 6.9 67 2.9 SW 20 28 11 15 - - 0.0

Other Formats:

Comma delimited format used in spreadsheet applications
http://www.bom.gov.au/fwo/IDV60801/IDV60801.95835.axf

JavaScript Object Notation format (JSON) in row-major order
http://www.bom.gov.au/fwo/IDV60801/IDV60801.95835.json